sensor_id;sensor_type;location;lat;lon;timestamp;P1;durP1;ratioP1;P2;durP2;ratioP2
15573;SDS011;7888;46.748;8.102;2023-04-03T00:00:25;0.73;;;0.20;;
15573;SDS011;7888;46.748;8.102;2023-04-03T00:02:51;0.87;;;0.30;;
15573;SDS011;7888;46.748;8.102;2023-04-03T00:05:17;0.33;;;0.30;;
15573;SDS011;7888;46.748;8.102;2023-04-03T00:07:42;0.30;;;0.30;;
15573;SDS011;7888;46.748;8.102;2023-04-03T00:10:08;0.20;;;0.20;;
15573;SDS011;7888;46.748;8.102;2023-04-03T00:12:35;0.20;;;0.20;;
15573;SDS011;7888;46.748;8.102;2023-04-03T00:15:00;0.40;;;0.33;;
15573;SDS011;7888;46.748;8.102;2023-04-03T00:17:26;1.80;;;0.40;;
15573;SDS011;7888;46.748;8.102;2023-04-03T00:19:52;1.03;;;0.30;;
15573;SDS011;7888;46.748;8.102;2023-04-03T00:22:18;0.30;;;0.30;;
15573;SDS011;7888;46.748;8.102;2023-04-03T00:24:43;0.37;;;0.30;;
15573;SDS011;7888;46.748;8.102;2023-04-03T00:27:10;0.40;;;0.40;;
15573;SDS011;7888;46.748;8.102;2023-04-03T00:29:36;0.30;;;0.30;;
15573;SDS011;7888;46.748;8.102;2023-04-03T00:32:02;1.10;;;0.50;;
15573;SDS011;7888;46.748;8.102;2023-04-03T00:34:27;0.40;;;0.40;;
15573;SDS011;7888;46.748;8.102;2023-04-03T00:36:53;0.93;;;0.40;;
15573;SDS011;7888;46.748;8.102;2023-04-03T00:39:19;0.30;;;0.23;;
15573;SDS011;7888;46.748;8.102;2023-04-03T00:41:45;0.87;;;0.40;;
15573;SDS011;7888;46.748;8.102;2023-04-03T00:44:18;0.30;;;0.30;;
15573;SDS011;7888;46.748;8.102;2023-04-03T00:46:46;0.30;;;0.30;;
15573;SDS011;7888;46.748;8.102;2023-04-03T00:49:12;1.20;;;0.40;;
15573;SDS011;7888;46.748;8.102;2023-04-03T00:51:38;0.63;;;0.30;;
15573;SDS011;7888;46.748;8.102;2023-04-03T00:54:05;0.40;;;0.30;;
15573;SDS011;7888;46.748;8.102;2023-04-03T00:56:33;1.60;;;0.40;;
15573;SDS011;7888;46.748;8.102;2023-04-03T00:59:02;0.40;;;0.30;;
15573;SDS011;7888;46.748;8.102;2023-04-03T01:01:35;0.40;;;0.30;;
15573;SDS011;7888;46.748;8.102;2023-04-03T01:04:03;0.30;;;0.30;;
15573;SDS011;7888;46.748;8.102;2023-04-03T01:06:32;0.83;;;0.30;;
15573;SDS011;7888;46.748;8.102;2023-04-03T01:09:02;0.30;;;0.30;;
15573;SDS011;7888;46.748;8.102;2023-04-03T01:11:29;1.13;;;0.40;;
15573;SDS011;7888;46.748;8.102;2023-04-03T01:13:55;0.90;;;0.60;;
15573;SDS011;7888;46.748;8.102;2023-04-03T01:16:21;0.57;;;0.43;;
15573;SDS011;7888;46.748;8.102;2023-04-03T01:18:47;0.50;;;0.50;;
15573;SDS011;7888;46.748;8.102;2023-04-03T01:27:01;0.50;;;0.50;;
15573;SDS011;7888;46.748;8.102;2023-04-03T01:29:31;0.53;;;0.50;;
15573;SDS011;7888;46.748;8.102;2023-04-03T01:31:58;0.93;;;0.73;;
15573;SDS011;7888;46.748;8.102;2023-04-03T01:34:26;0.53;;;0.40;;
15573;SDS011;7888;46.748;8.102;2023-04-03T01:36:53;0.60;;;0.40;;
15573;SDS011;7888;46.748;8.102;2023-04-03T01:39:19;0.80;;;0.50;;
15573;SDS011;7888;46.748;8.102;2023-04-03T01:41:46;0.80;;;0.50;;
15573;SDS011;7888;46.748;8.102;2023-04-03T01:44:12;0.60;;;0.40;;
15573;SDS011;7888;46.748;8.102;2023-04-03T01:46:38;0.50;;;0.37;;
15573;SDS011;7888;46.748;8.102;2023-04-03T01:49:05;0.30;;;0.30;;
15573;SDS011;7888;46.748;8.102;2023-04-03T01:51:30;0.20;;;0.20;;
15573;SDS011;7888;46.748;8.102;2023-04-03T01:53:56;0.20;;;0.20;;
15573;SDS011;7888;46.748;8.102;2023-04-03T01:56:22;0.30;;;0.20;;
15573;SDS011;7888;46.748;8.102;2023-04-03T01:58:48;0.20;;;0.20;;
15573;SDS011;7888;46.748;8.102;2023-04-03T02:01:15;0.30;;;0.30;;
15573;SDS011;7888;46.748;8.102;2023-04-03T02:03:41;0.10;;;0.10;;
15573;SDS011;7888;46.748;8.102;2023-04-03T02:06:07;0.30;;;0.20;;
15573;SDS011;7888;46.748;8.102;2023-04-03T02:08:33;0.27;;;0.20;;
15573;SDS011;7888;46.748;8.102;2023-04-03T02:10:59;0.10;;;0.10;;
15573;SDS011;7888;46.748;8.102;2023-04-03T02:13:25;0.30;;;0.20;;
15573;SDS011;7888;46.748;8.102;2023-04-03T02:15:51;0.53;;;0.20;;
15573;SDS011;7888;46.748;8.102;2023-04-03T02:18:16;0.97;;;0.20;;
15573;SDS011;7888;46.748;8.102;2023-04-03T02:20:43;0.20;;;0.20;;
15573;SDS011;7888;46.748;8.102;2023-04-03T02:23:09;0.90;;;0.10;;
15573;SDS011;7888;46.748;8.102;2023-04-03T02:25:36;0.10;;;0.10;;
15573;SDS011;7888;46.748;8.102;2023-04-03T02:28:01;0.70;;;0.00;;
15573;SDS011;7888;46.748;8.102;2023-04-03T02:30:27;0.20;;;0.10;;
15573;SDS011;7888;46.748;8.102;2023-04-03T02:32:53;0.10;;;0.10;;
15573;SDS011;7888;46.748;8.102;2023-04-03T02:35:19;0.10;;;0.10;;
15573;SDS011;7888;46.748;8.102;2023-04-03T02:37:45;0.00;;;0.00;;
15573;SDS011;7888;46.748;8.102;2023-04-03T02:40:11;0.00;;;0.00;;
15573;SDS011;7888;46.748;8.102;2023-04-03T02:42:37;0.10;;;0.10;;
15573;SDS011;7888;46.748;8.102;2023-04-03T02:45:03;0.30;;;0.20;;
15573;SDS011;7888;46.748;8.102;2023-04-03T02:47:30;0.17;;;0.10;;
15573;SDS011;7888;46.748;8.102;2023-04-03T02:49:55;2.73;;;0.17;;
15573;SDS011;7888;46.748;8.102;2023-04-03T02:52:21;0.20;;;0.20;;
15573;SDS011;7888;46.748;8.102;2023-04-03T02:54:47;0.10;;;0.10;;
15573;SDS011;7888;46.748;8.102;2023-04-03T02:57:13;0.10;;;0.10;;
15573;SDS011;7888;46.748;8.102;2023-04-03T02:59:39;0.10;;;0.10;;
15573;SDS011;7888;46.748;8.102;2023-04-03T03:02:06;0.10;;;0.10;;
15573;SDS011;7888;46.748;8.102;2023-04-03T03:04:36;0.20;;;0.10;;
15573;SDS011;7888;46.748;8.102;2023-04-03T03:07:02;1.03;;;0.10;;
15573;SDS011;7888;46.748;8.102;2023-04-03T03:09:28;0.10;;;0.10;;
15573;SDS011;7888;46.748;8.102;2023-04-03T03:11:55;0.03;;;0.03;;
15573;SDS011;7888;46.748;8.102;2023-04-03T03:14:22;0.10;;;0.10;;
15573;SDS011;7888;46.748;8.102;2023-04-03T03:16:48;0.00;;;0.00;;
15573;SDS011;7888;46.748;8.102;2023-04-03T03:19:14;0.87;;;0.10;;
15573;SDS011;7888;46.748;8.102;2023-04-03T03:21:40;0.10;;;0.10;;
15573;SDS011;7888;46.748;8.102;2023-04-03T03:24:06;0.20;;;0.20;;
15573;SDS011;7888;46.748;8.102;2023-04-03T03:26:32;0.17;;;0.17;;
15573;SDS011;7888;46.748;8.102;2023-04-03T03:28:58;0.67;;;0.30;;
15573;SDS011;7888;46.748;8.102;2023-04-03T03:31:23;0.20;;;0.20;;
15573;SDS011;7888;46.748;8.102;2023-04-03T03:33:49;0.13;;;0.13;;
15573;SDS011;7888;46.748;8.102;2023-04-03T03:36:15;0.30;;;0.30;;
15573;SDS011;7888;46.748;8.102;2023-04-03T03:38:41;0.20;;;0.20;;
15573;SDS011;7888;46.748;8.102;2023-04-03T03:41:07;0.20;;;0.20;;
15573;SDS011;7888;46.748;8.102;2023-04-03T03:43:33;0.93;;;0.20;;
15573;SDS011;7888;46.748;8.102;2023-04-03T03:45:59;1.30;;;0.37;;
15573;SDS011;7888;46.748;8.102;2023-04-03T03:48:24;0.30;;;0.30;;
15573;SDS011;7888;46.748;8.102;2023-04-03T03:50:50;0.40;;;0.30;;
15573;SDS011;7888;46.748;8.102;2023-04-03T03:53:16;0.20;;;0.20;;
15573;SDS011;7888;46.748;8.102;2023-04-03T03:55:42;0.20;;;0.20;;
15573;SDS011;7888;46.748;8.102;2023-04-03T03:58:08;0.93;;;0.20;;
15573;SDS011;7888;46.748;8.102;2023-04-03T04:00:34;0.20;;;0.20;;
15573;SDS011;7888;46.748;8.102;2023-04-03T04:03:00;0.20;;;0.10;;
15573;SDS011;7888;46.748;8.102;2023-04-03T04:05:26;0.40;;;0.30;;
15573;SDS011;7888;46.748;8.102;2023-04-03T04:07:52;0.47;;;0.30;;
15573;SDS011;7888;46.748;8.102;2023-04-03T04:10:18;0.83;;;0.20;;
15573;SDS011;7888;46.748;8.102;2023-04-03T04:12:43;0.40;;;0.23;;
15573;SDS011;7888;46.748;8.102;2023-04-03T04:15:12;0.83;;;0.40;;
15573;SDS011;7888;46.748;8.102;2023-04-03T04:17:38;0.20;;;0.20;;
15573;SDS011;7888;46.748;8.102;2023-04-03T04:20:04;0.17;;;0.17;;
15573;SDS011;7888;46.748;8.102;2023-04-03T04:22:30;0.50;;;0.30;;
15573;SDS011;7888;46.748;8.102;2023-04-03T04:24:56;0.30;;;0.30;;
15573;SDS011;7888;46.748;8.102;2023-04-03T04:27:22;0.30;;;0.30;;
15573;SDS011;7888;46.748;8.102;2023-04-03T04:29:48;0.20;;;0.20;;
15573;SDS011;7888;46.748;8.102;2023-04-03T04:32:14;0.30;;;0.30;;
15573;SDS011;7888;46.748;8.102;2023-04-03T04:34:39;0.20;;;0.20;;
15573;SDS011;7888;46.748;8.102;2023-04-03T04:37:05;0.27;;;0.20;;
15573;SDS011;7888;46.748;8.102;2023-04-03T04:39:31;0.77;;;0.30;;
15573;SDS011;7888;46.748;8.102;2023-04-03T04:41:57;0.33;;;0.33;;
15573;SDS011;7888;46.748;8.102;2023-04-03T04:44:22;0.20;;;0.20;;
15573;SDS011;7888;46.748;8.102;2023-04-03T04:46:48;3.00;;;0.60;;
15573;SDS011;7888;46.748;8.102;2023-04-03T04:49:14;0.30;;;0.30;;
15573;SDS011;7888;46.748;8.102;2023-04-03T04:51:40;0.20;;;0.20;;
15573;SDS011;7888;46.748;8.102;2023-04-03T04:54:05;0.30;;;0.30;;
15573;SDS011;7888;46.748;8.102;2023-04-03T04:56:31;0.30;;;0.30;;
15573;SDS011;7888;46.748;8.102;2023-04-03T04:58:57;0.53;;;0.53;;
15573;SDS011;7888;46.748;8.102;2023-04-03T05:01:23;0.50;;;0.50;;
15573;SDS011;7888;46.748;8.102;2023-04-03T05:03:49;0.37;;;0.37;;
15573;SDS011;7888;46.748;8.102;2023-04-03T05:06:15;0.50;;;0.50;;
15573;SDS011;7888;46.748;8.102;2023-04-03T05:08:40;0.63;;;0.60;;
15573;SDS011;7888;46.748;8.102;2023-04-03T05:11:06;0.60;;;0.60;;
15573;SDS011;7888;46.748;8.102;2023-04-03T05:13:32;0.50;;;0.50;;
15573;SDS011;7888;46.748;8.102;2023-04-03T05:15:58;0.80;;;0.80;;
15573;SDS011;7888;46.748;8.102;2023-04-03T05:18:24;1.00;;;1.00;;
15573;SDS011;7888;46.748;8.102;2023-04-03T05:20:50;0.70;;;0.70;;
15573;SDS011;7888;46.748;8.102;2023-04-03T05:23:16;0.80;;;0.80;;
15573;SDS011;7888;46.748;8.102;2023-04-03T05:25:42;0.67;;;0.67;;
15573;SDS011;7888;46.748;8.102;2023-04-03T05:28:10;1.07;;;0.80;;
15573;SDS011;7888;46.748;8.102;2023-04-03T05:30:36;0.70;;;0.70;;
15573;SDS011;7888;46.748;8.102;2023-04-03T05:33:02;0.87;;;0.73;;
15573;SDS011;7888;46.748;8.102;2023-04-03T05:35:28;1.27;;;0.97;;
15573;SDS011;7888;46.748;8.102;2023-04-03T05:37:54;0.87;;;0.87;;
15573;SDS011;7888;46.748;8.102;2023-04-03T05:40:20;0.80;;;0.80;;
15573;SDS011;7888;46.748;8.102;2023-04-03T05:42:46;0.80;;;0.80;;
15573;SDS011;7888;46.748;8.102;2023-04-03T05:45:12;0.83;;;0.83;;
15573;SDS011;7888;46.748;8.102;2023-04-03T05:47:38;1.20;;;1.10;;
15573;SDS011;7888;46.748;8.102;2023-04-03T05:50:04;1.23;;;1.13;;
15573;SDS011;7888;46.748;8.102;2023-04-03T05:52:31;0.80;;;0.80;;
15573;SDS011;7888;46.748;8.102;2023-04-03T05:55:01;1.03;;;0.90;;
15573;SDS011;7888;46.748;8.102;2023-04-03T05:57:28;0.50;;;0.50;;
15573;SDS011;7888;46.748;8.102;2023-04-03T05:59:54;0.60;;;0.60;;
15573;SDS011;7888;46.748;8.102;2023-04-03T06:02:21;0.67;;;0.67;;
15573;SDS011;7888;46.748;8.102;2023-04-03T06:04:50;0.53;;;0.53;;
15573;SDS011;7888;46.748;8.102;2023-04-03T06:07:20;0.50;;;0.43;;
15573;SDS011;7888;46.748;8.102;2023-04-03T06:09:49;0.53;;;0.53;;
15573;SDS011;7888;46.748;8.102;2023-04-03T06:12:16;0.73;;;0.60;;
15573;SDS011;7888;46.748;8.102;2023-04-03T06:14:43;1.50;;;0.60;;
15573;SDS011;7888;46.748;8.102;2023-04-03T06:17:09;0.60;;;0.60;;
15573;SDS011;7888;46.748;8.102;2023-04-03T06:19:35;0.60;;;0.60;;
15573;SDS011;7888;46.748;8.102;2023-04-03T06:22:02;0.53;;;0.53;;
15573;SDS011;7888;46.748;8.102;2023-04-03T06:24:28;2.53;;;1.00;;
15573;SDS011;7888;46.748;8.102;2023-04-03T06:26:56;0.63;;;0.63;;
15573;SDS011;7888;46.748;8.102;2023-04-03T06:29:22;0.43;;;0.43;;
15573;SDS011;7888;46.748;8.102;2023-04-03T06:31:49;0.63;;;0.60;;
15573;SDS011;7888;46.748;8.102;2023-04-03T06:34:16;0.50;;;0.50;;
15573;SDS011;7888;46.748;8.102;2023-04-03T06:36:43;0.70;;;0.70;;
15573;SDS011;7888;46.748;8.102;2023-04-03T06:39:14;0.67;;;0.67;;
15573;SDS011;7888;46.748;8.102;2023-04-03T06:41:50;0.70;;;0.70;;
15573;SDS011;7888;46.748;8.102;2023-04-03T06:44:16;0.37;;;0.37;;
15573;SDS011;7888;46.748;8.102;2023-04-03T06:46:43;0.60;;;0.60;;
15573;SDS011;7888;46.748;8.102;2023-04-03T07:20:18;0.83;;;0.83;;
15573;SDS011;7888;46.748;8.102;2023-04-03T07:22:44;0.90;;;0.90;;
15573;SDS011;7888;46.748;8.102;2023-04-03T07:25:11;1.00;;;1.00;;
15573;SDS011;7888;46.748;8.102;2023-04-03T07:27:37;1.40;;;1.17;;
15573;SDS011;7888;46.748;8.102;2023-04-03T07:30:03;1.30;;;1.10;;
15573;SDS011;7888;46.748;8.102;2023-04-03T07:32:31;1.10;;;1.00;;
15573;SDS011;7888;46.748;8.102;2023-04-03T07:34:57;0.90;;;0.80;;
15573;SDS011;7888;46.748;8.102;2023-04-03T07:37:23;0.80;;;0.80;;
15573;SDS011;7888;46.748;8.102;2023-04-03T07:39:49;0.70;;;0.70;;
15573;SDS011;7888;46.748;8.102;2023-04-03T07:42:15;4.60;;;1.30;;
15573;SDS011;7888;46.748;8.102;2023-04-03T07:44:41;0.80;;;0.80;;
15573;SDS011;7888;46.748;8.102;2023-04-03T07:47:07;0.77;;;0.77;;
15573;SDS011;7888;46.748;8.102;2023-04-03T07:49:34;0.70;;;0.70;;
15573;SDS011;7888;46.748;8.102;2023-04-03T07:52:03;0.90;;;0.90;;
15573;SDS011;7888;46.748;8.102;2023-04-03T07:54:29;3.23;;;0.70;;
15573;SDS011;7888;46.748;8.102;2023-04-03T07:56:55;0.80;;;0.80;;
15573;SDS011;7888;46.748;8.102;2023-04-03T07:59:21;0.80;;;0.80;;
15573;SDS011;7888;46.748;8.102;2023-04-03T08:01:47;0.90;;;0.90;;
15573;SDS011;7888;46.748;8.102;2023-04-03T08:04:13;1.00;;;0.90;;
15573;SDS011;7888;46.748;8.102;2023-04-03T08:06:39;1.27;;;1.17;;
15573;SDS011;7888;46.748;8.102;2023-04-03T08:09:05;1.10;;;1.00;;
15573;SDS011;7888;46.748;8.102;2023-04-03T08:11:31;1.10;;;1.00;;
15573;SDS011;7888;46.748;8.102;2023-04-03T08:13:56;0.77;;;0.77;;
15573;SDS011;7888;46.748;8.102;2023-04-03T08:16:23;0.80;;;0.80;;
15573;SDS011;7888;46.748;8.102;2023-04-03T08:18:52;1.37;;;1.00;;
15573;SDS011;7888;46.748;8.102;2023-04-03T08:21:19;0.90;;;0.90;;
15573;SDS011;7888;46.748;8.102;2023-04-03T08:23:47;1.13;;;1.07;;
15573;SDS011;7888;46.748;8.102;2023-04-03T08:26:17;0.80;;;0.80;;
15573;SDS011;7888;46.748;8.102;2023-04-03T08:28:46;1.30;;;1.07;;
15573;SDS011;7888;46.748;8.102;2023-04-03T08:31:14;1.00;;;1.00;;
15573;SDS011;7888;46.748;8.102;2023-04-03T08:33:43;0.90;;;0.90;;
15573;SDS011;7888;46.748;8.102;2023-04-03T08:36:24;1.13;;;1.10;;
15573;SDS011;7888;46.748;8.102;2023-04-03T08:38:55;0.80;;;0.80;;
15573;SDS011;7888;46.748;8.102;2023-04-03T08:41:38;0.87;;;0.83;;
15573;SDS011;7888;46.748;8.102;2023-04-03T08:49:49;0.97;;;0.93;;
15573;SDS011;7888;46.748;8.102;2023-04-03T08:52:36;1.13;;;0.90;;
15573;SDS011;7888;46.748;8.102;2023-04-03T08:55:29;0.70;;;0.70;;
15573;SDS011;7888;46.748;8.102;2023-04-03T08:58:01;1.20;;;1.10;;
15573;SDS011;7888;46.748;8.102;2023-04-03T09:00:57;1.07;;;1.03;;
15573;SDS011;7888;46.748;8.102;2023-04-03T09:03:28;1.47;;;0.90;;
15573;SDS011;7888;46.748;8.102;2023-04-03T09:06:04;0.80;;;0.80;;
15573;SDS011;7888;46.748;8.102;2023-04-03T09:08:40;0.90;;;0.90;;
15573;SDS011;7888;46.748;8.102;2023-04-03T09:11:19;0.83;;;0.83;;
15573;SDS011;7888;46.748;8.102;2023-04-03T09:13:59;1.10;;;1.00;;
15573;SDS011;7888;46.748;8.102;2023-04-03T09:16:59;1.20;;;1.10;;
15573;SDS011;7888;46.748;8.102;2023-04-03T09:24:49;0.80;;;0.80;;
15573;SDS011;7888;46.748;8.102;2023-04-03T09:27:30;0.80;;;0.80;;
15573;SDS011;7888;46.748;8.102;2023-04-03T09:29:56;0.90;;;0.90;;
15573;SDS011;7888;46.748;8.102;2023-04-03T09:32:27;1.00;;;0.90;;
15573;SDS011;7888;46.748;8.102;2023-04-03T09:35:01;1.07;;;1.00;;
15573;SDS011;7888;46.748;8.102;2023-04-03T09:37:44;1.10;;;1.10;;
15573;SDS011;7888;46.748;8.102;2023-04-03T09:42:55;1.00;;;1.00;;
15573;SDS011;7888;46.748;8.102;2023-04-03T09:45:25;0.90;;;0.90;;
15573;SDS011;7888;46.748;8.102;2023-04-03T09:48:04;0.90;;;0.90;;
15573;SDS011;7888;46.748;8.102;2023-04-03T09:50:52;1.27;;;1.13;;
15573;SDS011;7888;46.748;8.102;2023-04-03T09:56:47;0.80;;;0.80;;
15573;SDS011;7888;46.748;8.102;2023-04-03T10:01:26;1.00;;;1.00;;
15573;SDS011;7888;46.748;8.102;2023-04-03T10:06:43;1.00;;;0.90;;
15573;SDS011;7888;46.748;8.102;2023-04-03T10:15:19;1.27;;;1.10;;
15573;SDS011;7888;46.748;8.102;2023-04-03T10:20:37;1.40;;;1.30;;
15573;SDS011;7888;46.748;8.102;2023-04-03T10:31:59;1.00;;;1.00;;
15573;SDS011;7888;46.748;8.102;2023-04-03T10:34:42;1.00;;;1.00;;
15573;SDS011;7888;46.748;8.102;2023-04-03T10:42:44;1.03;;;1.03;;
15573;SDS011;7888;46.748;8.102;2023-04-03T10:53:49;1.27;;;1.17;;
15573;SDS011;7888;46.748;8.102;2023-04-03T10:56:37;1.07;;;1.00;;
15573;SDS011;7888;46.748;8.102;2023-04-03T11:02:02;1.30;;;1.20;;
15573;SDS011;7888;46.748;8.102;2023-04-03T11:04:40;1.13;;;1.07;;
15573;SDS011;7888;46.748;8.102;2023-04-03T11:07:17;1.50;;;1.40;;
15573;SDS011;7888;46.748;8.102;2023-04-03T11:09:55;1.20;;;1.10;;
15573;SDS011;7888;46.748;8.102;2023-04-03T11:12:47;1.10;;;1.10;;
15573;SDS011;7888;46.748;8.102;2023-04-03T11:15:31;1.53;;;1.43;;
15573;SDS011;7888;46.748;8.102;2023-04-03T11:18:00;1.10;;;1.07;;
15573;SDS011;7888;46.748;8.102;2023-04-03T11:20:38;1.33;;;1.23;;
15573;SDS011;7888;46.748;8.102;2023-04-03T11:25:51;1.20;;;1.10;;
15573;SDS011;7888;46.748;8.102;2023-04-03T11:28:26;1.30;;;1.20;;
15573;SDS011;7888;46.748;8.102;2023-04-03T11:31:00;1.27;;;1.17;;
15573;SDS011;7888;46.748;8.102;2023-04-03T11:36:44;1.10;;;1.00;;
15573;SDS011;7888;46.748;8.102;2023-04-03T11:39:31;1.10;;;1.03;;
15573;SDS011;7888;46.748;8.102;2023-04-03T11:42:16;1.20;;;1.10;;
15573;SDS011;7888;46.748;8.102;2023-04-03T11:47:53;1.40;;;1.30;;
15573;SDS011;7888;46.748;8.102;2023-04-03T12:00:46;1.50;;;1.30;;
15573;SDS011;7888;46.748;8.102;2023-04-03T12:13:34;1.77;;;1.50;;
15573;SDS011;7888;46.748;8.102;2023-04-03T12:16:02;1.80;;;1.70;;
15573;SDS011;7888;46.748;8.102;2023-04-03T12:18:44;1.73;;;1.60;;
15573;SDS011;7888;46.748;8.102;2023-04-03T12:21:18;1.50;;;1.40;;
15573;SDS011;7888;46.748;8.102;2023-04-03T12:26:46;2.80;;;1.80;;
15573;SDS011;7888;46.748;8.102;2023-04-03T12:29:27;1.70;;;1.60;;
15573;SDS011;7888;46.748;8.102;2023-04-03T12:47:27;1.93;;;1.83;;
15573;SDS011;7888;46.748;8.102;2023-04-03T12:50:01;1.70;;;1.60;;
15573;SDS011;7888;46.748;8.102;2023-04-03T12:58:48;1.60;;;1.50;;
15573;SDS011;7888;46.748;8.102;2023-04-03T13:01:17;1.60;;;1.50;;
15573;SDS011;7888;46.748;8.102;2023-04-03T13:03:49;1.60;;;1.50;;
15573;SDS011;7888;46.748;8.102;2023-04-03T13:06:26;2.23;;;2.03;;
15573;SDS011;7888;46.748;8.102;2023-04-03T13:09:05;2.00;;;1.80;;
15573;SDS011;7888;46.748;8.102;2023-04-03T13:11:46;2.23;;;1.77;;
15573;SDS011;7888;46.748;8.102;2023-04-03T13:14:26;1.70;;;1.60;;
15573;SDS011;7888;46.748;8.102;2023-04-03T13:16:57;2.30;;;1.90;;
15573;SDS011;7888;46.748;8.102;2023-04-03T13:19:37;1.70;;;1.60;;
15573;SDS011;7888;46.748;8.102;2023-04-03T13:22:19;2.13;;;1.87;;
15573;SDS011;7888;46.748;8.102;2023-04-03T13:24:58;2.00;;;1.80;;
15573;SDS011;7888;46.748;8.102;2023-04-03T13:27:30;1.50;;;1.40;;
15573;SDS011;7888;46.748;8.102;2023-04-03T13:29:58;1.90;;;1.80;;
15573;SDS011;7888;46.748;8.102;2023-04-03T13:32:27;2.23;;;1.90;;
15573;SDS011;7888;46.748;8.102;2023-04-03T13:34:56;1.93;;;1.83;;
15573;SDS011;7888;46.748;8.102;2023-04-03T13:37:29;2.33;;;1.90;;
15573;SDS011;7888;46.748;8.102;2023-04-03T13:42:44;2.20;;;2.00;;
15573;SDS011;7888;46.748;8.102;2023-04-03T13:47:49;1.70;;;1.60;;
15573;SDS011;7888;46.748;8.102;2023-04-03T13:50:23;2.00;;;1.90;;
15573;SDS011;7888;46.748;8.102;2023-04-03T13:52:55;1.90;;;1.80;;
15573;SDS011;7888;46.748;8.102;2023-04-03T13:55:52;1.77;;;1.67;;
15573;SDS011;7888;46.748;8.102;2023-04-03T13:58:23;1.93;;;1.83;;
15573;SDS011;7888;46.748;8.102;2023-04-03T14:00:56;1.87;;;1.77;;
15573;SDS011;7888;46.748;8.102;2023-04-03T14:06:29;2.63;;;1.90;;
15573;SDS011;7888;46.748;8.102;2023-04-03T14:08:54;2.10;;;1.90;;
15573;SDS011;7888;46.748;8.102;2023-04-03T14:11:22;2.10;;;1.90;;
15573;SDS011;7888;46.748;8.102;2023-04-03T14:14:02;1.83;;;1.73;;
15573;SDS011;7888;46.748;8.102;2023-04-03T14:16:40;1.63;;;1.53;;
15573;SDS011;7888;46.748;8.102;2023-04-03T14:19:20;2.57;;;1.67;;
15573;SDS011;7888;46.748;8.102;2023-04-03T14:21:57;2.00;;;1.80;;
15573;SDS011;7888;46.748;8.102;2023-04-03T14:24:25;1.87;;;1.77;;
15573;SDS011;7888;46.748;8.102;2023-04-03T14:26:53;2.17;;;1.97;;
15573;SDS011;7888;46.748;8.102;2023-04-03T14:29:20;2.53;;;2.10;;
15573;SDS011;7888;46.748;8.102;2023-04-03T14:31:48;2.07;;;1.73;;
15573;SDS011;7888;46.748;8.102;2023-04-03T14:34:15;2.07;;;1.97;;
15573;SDS011;7888;46.748;8.102;2023-04-03T14:36:41;1.97;;;1.87;;
15573;SDS011;7888;46.748;8.102;2023-04-03T14:39:16;2.53;;;1.90;;
15573;SDS011;7888;46.748;8.102;2023-04-03T14:41:43;2.10;;;1.90;;
15573;SDS011;7888;46.748;8.102;2023-04-03T14:44:10;2.13;;;2.00;;
15573;SDS011;7888;46.748;8.102;2023-04-03T14:46:36;1.90;;;1.80;;
15573;SDS011;7888;46.748;8.102;2023-04-03T14:49:18;1.80;;;1.70;;
15573;SDS011;7888;46.748;8.102;2023-04-03T14:51:48;1.93;;;1.83;;
15573;SDS011;7888;46.748;8.102;2023-04-03T14:54:19;3.67;;;3.37;;
15573;SDS011;7888;46.748;8.102;2023-04-03T14:56:52;2.57;;;2.37;;
15573;SDS011;7888;46.748;8.102;2023-04-03T14:59:30;2.10;;;1.90;;
15573;SDS011;7888;46.748;8.102;2023-04-03T15:01:57;2.03;;;1.90;;
15573;SDS011;7888;46.748;8.102;2023-04-03T15:04:23;2.50;;;2.30;;
15573;SDS011;7888;46.748;8.102;2023-04-03T15:06:50;2.30;;;2.10;;
15573;SDS011;7888;46.748;8.102;2023-04-03T15:09:21;2.47;;;2.27;;
15573;SDS011;7888;46.748;8.102;2023-04-03T15:11:51;2.00;;;1.90;;
15573;SDS011;7888;46.748;8.102;2023-04-03T15:14:19;2.50;;;2.30;;
15573;SDS011;7888;46.748;8.102;2023-04-03T15:16:45;2.47;;;2.07;;
15573;SDS011;7888;46.748;8.102;2023-04-03T15:19:12;2.03;;;1.93;;
15573;SDS011;7888;46.748;8.102;2023-04-03T15:21:38;2.03;;;1.87;;
15573;SDS011;7888;46.748;8.102;2023-04-03T15:24:04;2.30;;;2.10;;
15573;SDS011;7888;46.748;8.102;2023-04-03T15:26:31;1.70;;;1.60;;
15573;SDS011;7888;46.748;8.102;2023-04-03T15:28:57;3.33;;;2.83;;
15573;SDS011;7888;46.748;8.102;2023-04-03T15:31:23;1.90;;;1.80;;
15573;SDS011;7888;46.748;8.102;2023-04-03T15:33:49;2.20;;;2.00;;
15573;SDS011;7888;46.748;8.102;2023-04-03T15:36:15;1.90;;;1.80;;
15573;SDS011;7888;46.748;8.102;2023-04-03T15:38:41;2.10;;;1.90;;
15573;SDS011;7888;46.748;8.102;2023-04-03T15:41:07;1.97;;;1.87;;
15573;SDS011;7888;46.748;8.102;2023-04-03T15:43:33;1.97;;;1.57;;
15573;SDS011;7888;46.748;8.102;2023-04-03T15:46:00;2.40;;;2.20;;
15573;SDS011;7888;46.748;8.102;2023-04-03T15:48:27;1.80;;;1.70;;
15573;SDS011;7888;46.748;8.102;2023-04-03T15:50:53;2.73;;;1.80;;
15573;SDS011;7888;46.748;8.102;2023-04-03T15:53:20;1.63;;;1.53;;
15573;SDS011;7888;46.748;8.102;2023-04-03T15:55:45;2.03;;;1.90;;
15573;SDS011;7888;46.748;8.102;2023-04-03T15:58:11;1.70;;;1.60;;
15573;SDS011;7888;46.748;8.102;2023-04-03T16:00:37;1.60;;;1.50;;
15573;SDS011;7888;46.748;8.102;2023-04-03T16:03:05;1.60;;;1.47;;
15573;SDS011;7888;46.748;8.102;2023-04-03T16:05:36;1.70;;;1.60;;
15573;SDS011;7888;46.748;8.102;2023-04-03T16:08:04;2.40;;;1.60;;
15573;SDS011;7888;46.748;8.102;2023-04-03T16:10:32;1.80;;;1.70;;
15573;SDS011;7888;46.748;8.102;2023-04-03T16:13:00;1.60;;;1.30;;
15573;SDS011;7888;46.748;8.102;2023-04-03T16:15:26;2.00;;;1.73;;
15573;SDS011;7888;46.748;8.102;2023-04-03T16:17:53;1.97;;;1.87;;
15573;SDS011;7888;46.748;8.102;2023-04-03T16:20:20;1.50;;;1.40;;
15573;SDS011;7888;46.748;8.102;2023-04-03T16:22:47;1.57;;;1.47;;
15573;SDS011;7888;46.748;8.102;2023-04-03T16:25:14;1.50;;;1.40;;
15573;SDS011;7888;46.748;8.102;2023-04-03T16:27:40;1.90;;;1.63;;
15573;SDS011;7888;46.748;8.102;2023-04-03T16:30:07;1.57;;;1.47;;
15573;SDS011;7888;46.748;8.102;2023-04-03T16:32:35;1.40;;;1.30;;
15573;SDS011;7888;46.748;8.102;2023-04-03T16:35:04;1.60;;;1.50;;
15573;SDS011;7888;46.748;8.102;2023-04-03T16:37:30;2.70;;;1.60;;
15573;SDS011;7888;46.748;8.102;2023-04-03T16:39:57;1.63;;;1.53;;
15573;SDS011;7888;46.748;8.102;2023-04-03T16:42:23;1.80;;;1.70;;
15573;SDS011;7888;46.748;8.102;2023-04-03T16:44:50;1.63;;;1.53;;
15573;SDS011;7888;46.748;8.102;2023-04-03T16:47:16;2.70;;;1.60;;
15573;SDS011;7888;46.748;8.102;2023-04-03T16:49:44;1.80;;;1.70;;
15573;SDS011;7888;46.748;8.102;2023-04-03T16:52:12;2.13;;;1.87;;
15573;SDS011;7888;46.748;8.102;2023-04-03T16:54:39;2.30;;;2.10;;
15573;SDS011;7888;46.748;8.102;2023-04-03T16:57:05;1.83;;;1.73;;
15573;SDS011;7888;46.748;8.102;2023-04-03T16:59:31;2.10;;;1.90;;
15573;SDS011;7888;46.748;8.102;2023-04-03T17:01:57;1.87;;;1.73;;
15573;SDS011;7888;46.748;8.102;2023-04-03T17:04:24;2.20;;;2.03;;
15573;SDS011;7888;46.748;8.102;2023-04-03T17:06:50;2.50;;;2.30;;
15573;SDS011;7888;46.748;8.102;2023-04-03T17:09:17;2.50;;;2.30;;
15573;SDS011;7888;46.748;8.102;2023-04-03T17:11:45;1.87;;;1.77;;
15573;SDS011;7888;46.748;8.102;2023-04-03T17:14:11;2.13;;;1.93;;
15573;SDS011;7888;46.748;8.102;2023-04-03T17:16:37;2.10;;;1.90;;
15573;SDS011;7888;46.748;8.102;2023-04-03T17:19:03;1.70;;;1.60;;
15573;SDS011;7888;46.748;8.102;2023-04-03T17:21:30;2.00;;;1.90;;
15573;SDS011;7888;46.748;8.102;2023-04-03T17:24:00;2.30;;;1.80;;
15573;SDS011;7888;46.748;8.102;2023-04-03T17:26:33;1.60;;;1.50;;
15573;SDS011;7888;46.748;8.102;2023-04-03T17:29:01;1.50;;;1.40;;
15573;SDS011;7888;46.748;8.102;2023-04-03T17:31:28;1.80;;;1.70;;
15573;SDS011;7888;46.748;8.102;2023-04-03T17:33:54;2.23;;;2.00;;
15573;SDS011;7888;46.748;8.102;2023-04-03T17:36:20;2.20;;;2.00;;
15573;SDS011;7888;46.748;8.102;2023-04-03T17:38:46;1.60;;;1.50;;
15573;SDS011;7888;46.748;8.102;2023-04-03T17:41:12;2.10;;;1.90;;
15573;SDS011;7888;46.748;8.102;2023-04-03T17:43:38;2.20;;;2.00;;
15573;SDS011;7888;46.748;8.102;2023-04-03T17:46:05;2.00;;;1.77;;